createdAt,value
2018-12-01T00:03:40.448Z,23.30
2018-12-01T00:07:42.863Z,20.10
2018-12-01T00:11:45.182Z,31.30
2018-12-01T00:15:47.497Z,27.10
2018-12-01T00:19:49.846Z,24.43
2018-12-01T00:23:52.241Z,20.40
2018-12-01T00:27:54.589Z,31.77
2018-12-01T00:31:57.746Z,20.63
2018-12-01T00:36:01.076Z,34.67
2018-12-01T00:40:05.011Z,41.53
2018-12-01T00:44:07.362Z,29.17
2018-12-01T00:48:09.695Z,32.87
2018-12-01T00:52:13.154Z,25.20
2018-12-01T00:56:15.451Z,17.77
2018-12-01T01:00:20.225Z,27.27
2018-12-01T01:04:23.755Z,19.83
2018-12-01T01:08:26.108Z,19.00
2018-12-01T01:12:30.620Z,19.57
2018-12-01T01:16:31.956Z,22.67
2018-12-01T01:20:34.866Z,22.03
2018-12-01T01:24:37.196Z,24.53
2018-12-01T01:28:39.541Z,23.37
2018-12-01T01:32:42.056Z,17.50
2018-12-01T01:36:44.392Z,16.20
2018-12-01T01:40:51.264Z,25.37
2018-12-01T01:44:53.622Z,22.87
2018-12-01T01:48:56.061Z,15.50
2018-12-01T01:52:58.424Z,16.90
2018-12-01T01:57:00.826Z,27.30
2018-12-01T02:01:03.161Z,17.07
2018-12-01T02:05:12.240Z,21.40
2018-12-01T02:09:14.600Z,18.53
2018-12-01T02:13:17.046Z,17.63
2018-12-01T02:17:19.441Z,13.47
2018-12-01T02:21:24.422Z,16.23
2018-12-01T02:25:26.811Z,16.20
2018-12-01T02:29:29.166Z,24.63
2018-12-01T02:33:31.481Z,22.23
2018-12-01T02:37:33.806Z,16.90
2018-12-01T02:41:36.194Z,21.47
2018-12-01T02:45:49.862Z,17.40
2018-12-01T02:49:52.627Z,22.40
2018-12-01T02:53:54.988Z,25.93
2018-12-01T02:57:57.401Z,24.60
2018-12-01T03:01:59.732Z,18.67
2018-12-01T03:06:02.078Z,21.50
2018-12-01T03:10:14.409Z,21.30
2018-12-01T03:14:16.734Z,18.30
2018-12-01T03:18:19.112Z,18.40
2018-12-01T03:22:21.483Z,17.90
2018-12-01T03:26:23.848Z,21.03
2018-12-01T03:30:26.226Z,18.63
2018-12-01T03:34:28.601Z,21.73
2018-12-01T03:38:30.937Z,22.43
2018-12-01T03:42:33.326Z,14.60
2018-12-01T03:46:35.718Z,15.63
2018-12-01T03:50:44.862Z,10.90
2018-12-01T03:54:47.197Z,12.03
2018-12-01T03:58:49.579Z,29.93
2018-12-01T04:02:51.946Z,13.53
2018-12-01T04:06:54.353Z,13.30
2018-12-01T04:10:56.703Z,16.90
2018-12-01T04:14:59.083Z,17.17
2018-12-01T04:19:01.505Z,15.50
2018-12-01T04:23:03.881Z,14.97
2018-12-01T04:27:06.256Z,17.83
2018-12-01T04:31:08.671Z,16.60
2018-12-01T04:35:15.298Z,12.23
2018-12-01T04:39:18.066Z,14.27
2018-12-01T04:43:20.475Z,16.07
2018-12-01T04:47:22.810Z,13.97
2018-12-01T04:51:25.167Z,15.03
2018-12-01T04:55:27.574Z,13.90
2018-12-01T04:59:30.080Z,19.20
2018-12-01T05:03:32.472Z,13.80
2018-12-01T05:07:34.848Z,17.73
2018-12-01T05:11:37.225Z,18.93
2018-12-01T05:15:39.551Z,16.97
2018-12-01T05:19:42.060Z,25.20
2018-12-01T05:23:44.456Z,21.77
2018-12-01T05:27:46.838Z,19.10
2018-12-01T05:31:49.203Z,24.73
2018-12-01T05:35:51.584Z,22.47
2018-12-01T05:39:53.911Z,23.90
2018-12-01T05:43:56.250Z,25.60
2018-12-01T05:47:58.649Z,19.03
2018-12-01T05:52:01.031Z,21.80
2018-12-01T05:56:03.375Z,18.23
2018-12-01T06:00:08.847Z,23.93
2018-12-01T06:04:11.194Z,20.33
2018-12-01T06:08:13.536Z,20.80
2018-12-01T06:12:15.804Z,22.87
2018-12-01T06:16:18.186Z,14.80
2018-12-01T06:20:21.812Z,19.83
2018-12-01T06:24:24.152Z,22.57
2018-12-01T06:28:26.555Z,25.03
2018-12-01T06:32:28.881Z,22.70
2018-12-01T06:36:31.231Z,25.67
2018-12-01T06:40:33.560Z,28.20
2018-12-01T06:44:35.865Z,92.03
2018-12-01T06:48:38.420Z,40.73
2018-12-01T06:52:40.806Z,42.80
2018-12-01T06:56:43.205Z,52.83
2018-12-01T07:00:45.517Z,62.10
2018-12-01T07:04:47.899Z,49.40
2018-12-01T07:08:50.271Z,48.77
2018-12-01T07:12:55.304Z,37.00
2018-12-01T07:16:57.860Z,29.00
2018-12-01T07:21:00.279Z,32.70
2018-12-01T07:25:02.700Z,30.80
2018-12-01T07:29:05.137Z,26.97
2018-12-01T07:33:07.486Z,30.10
2018-12-01T07:37:09.836Z,26.23
2018-12-01T07:41:12.235Z,26.37
2018-12-01T07:45:15.354Z,32.23
2018-12-01T07:49:17.738Z,29.07
2018-12-01T07:53:20.111Z,22.70
2018-12-01T07:57:22.491Z,20.00
2018-12-01T08:01:24.888Z,20.17
2018-12-01T08:05:27.270Z,23.90
2018-12-01T08:09:29.590Z,24.67
2018-12-01T08:13:31.946Z,20.50
2018-12-01T08:17:34.373Z,23.03
2018-12-01T08:21:36.730Z,18.83
2018-12-01T08:25:39.117Z,17.97
2018-12-01T08:29:41.446Z,22.97
2018-12-01T08:33:43.875Z,23.77
2018-12-01T08:37:46.316Z,21.30
2018-12-01T08:41:48.597Z,25.83
2018-12-01T08:45:50.964Z,18.13
2018-12-01T08:49:53.349Z,23.00
2018-12-01T08:53:55.722Z,18.90
2018-12-01T08:57:58.091Z,16.67
2018-12-01T09:02:00.460Z,17.87
2018-12-01T09:06:02.829Z,15.30
2018-12-01T09:10:07.876Z,16.40
2018-12-01T09:14:10.265Z,18.37
2018-12-01T09:18:12.609Z,18.47
2018-12-01T09:22:15.080Z,15.93
2018-12-01T09:26:17.434Z,23.27
2018-12-01T09:30:21.226Z,17.83
2018-12-01T09:34:23.731Z,23.60
2018-12-01T09:38:26.104Z,15.00
2018-12-01T09:42:28.506Z,21.03
2018-12-01T09:46:30.861Z,17.60
2018-12-01T09:50:33.318Z,19.30
2018-12-01T09:54:35.833Z,16.03
2018-12-01T09:58:38.440Z,13.33
2018-12-01T10:02:48.847Z,28.13
2018-12-01T10:06:51.405Z,18.93
2018-12-01T10:10:53.975Z,15.37
2018-12-01T10:14:56.353Z,19.83
2018-12-01T10:18:58.745Z,16.63
2018-12-01T10:23:02.721Z,17.50
2018-12-01T10:27:05.304Z,17.33
2018-12-01T10:31:07.701Z,15.80
2018-12-01T10:35:11.440Z,14.67
2018-12-01T10:39:13.801Z,11.17
2018-12-01T10:43:16.233Z,12.83
2018-12-01T10:47:18.628Z,13.27
2018-12-01T10:51:21.033Z,11.20
2018-12-01T10:55:26.365Z,15.80
2018-12-01T10:59:28.784Z,12.10
2018-12-01T11:03:36.763Z,10.80
2018-12-01T11:07:39.084Z,10.30
2018-12-01T11:11:41.515Z,12.43
2018-12-01T11:15:43.962Z,9.50
2018-12-01T11:19:46.367Z,10.90
2018-12-01T11:23:49.020Z,11.90
2018-12-01T11:27:51.415Z,8.33
2018-12-01T11:31:53.832Z,9.70
2018-12-01T11:35:56.347Z,13.30
2018-12-01T11:39:59.002Z,15.13
2018-12-01T11:44:01.429Z,18.73
2018-12-01T11:48:03.842Z,12.30
2018-12-01T11:52:06.275Z,16.80
2018-12-01T11:56:08.664Z,19.47
2018-12-01T12:00:15.244Z,22.07
2018-12-01T12:04:17.619Z,22.10
2018-12-01T12:08:21.644Z,20.53
2018-12-01T12:12:24.158Z,26.10
2018-12-01T12:16:26.602Z,18.73
2018-12-01T12:20:29.823Z,18.17
2018-12-01T12:24:32.219Z,13.90
2018-12-01T12:28:34.809Z,12.00
2018-12-01T12:32:37.398Z,8.70
2018-12-01T12:36:39.822Z,10.97
2018-12-01T12:40:42.188Z,15.53
2018-12-01T12:44:44.601Z,8.80
2018-12-01T12:48:47.023Z,9.53
2018-12-01T12:52:51.737Z,9.93
2018-12-01T12:56:54.093Z,13.87
2018-12-01T13:00:56.461Z,8.77
2018-12-01T13:04:59.844Z,13.27
2018-12-01T13:09:02.473Z,14.73
2018-12-01T13:13:05.799Z,11.43
2018-12-01T13:17:08.157Z,10.70
2018-12-01T13:21:10.523Z,12.23
2018-12-01T13:25:13.763Z,22.37
2018-12-01T13:29:16.201Z,17.77
2018-12-01T13:33:18.702Z,15.27
2018-12-01T13:37:21.084Z,15.13
2018-12-01T13:41:23.489Z,18.67
2018-12-01T13:45:25.938Z,16.27
2018-12-01T13:49:28.349Z,15.40
2018-12-01T13:53:30.797Z,14.60
2018-12-01T13:57:33.222Z,12.97
2018-12-01T14:01:35.600Z,15.50
2018-12-01T14:05:39.178Z,12.87
2018-12-01T14:09:41.506Z,9.87
2018-12-01T14:13:43.978Z,13.27
2018-12-01T14:17:46.798Z,8.40
2018-12-01T14:21:49.166Z,11.40
2018-12-01T14:25:51.523Z,13.07
2018-12-01T14:29:54.022Z,16.70
2018-12-01T14:33:56.451Z,18.23
2018-12-01T14:38:02.458Z,12.80
2018-12-01T14:42:04.873Z,15.93
2018-12-01T14:46:07.242Z,15.37
2018-12-01T14:50:11.582Z,13.80
2018-12-01T14:54:14.108Z,14.00
2018-12-01T14:58:16.472Z,17.33
2018-12-01T15:02:18.903Z,11.33
2018-12-01T15:06:21.246Z,14.73
2018-12-01T15:10:24.771Z,12.80
2018-12-01T15:14:27.121Z,14.47
2018-12-01T15:18:29.471Z,12.20
2018-12-01T15:22:31.919Z,14.17
2018-12-01T15:26:34.300Z,13.23
2018-12-01T15:30:36.775Z,16.13
2018-12-01T15:34:39.200Z,17.17
2018-12-01T15:38:41.625Z,19.60
2018-12-01T15:42:44.045Z,19.27
2018-12-01T15:46:46.457Z,24.20
2018-12-01T15:50:48.923Z,24.90
2018-12-01T15:54:51.250Z,18.53
2018-12-01T15:58:53.610Z,26.70
2018-12-01T16:02:56.011Z,16.37
2018-12-01T16:06:58.443Z,21.50
2018-12-01T16:11:00.850Z,17.67
2018-12-01T16:15:03.523Z,17.90
2018-12-01T16:19:06.101Z,16.67
2018-12-01T16:23:08.549Z,19.70
2018-12-01T16:27:10.949Z,20.10
2018-12-01T16:31:13.331Z,19.50
2018-12-01T16:35:15.739Z,20.90
2018-12-01T16:39:18.221Z,19.43
2018-12-01T16:43:21.005Z,20.50
2018-12-01T16:47:23.351Z,21.83
2018-12-01T16:51:25.790Z,25.17
2018-12-01T16:55:28.243Z,21.83
2018-12-01T16:59:30.714Z,21.20
2018-12-01T17:03:33.119Z,30.97
2018-12-01T17:07:35.549Z,24.83
2018-12-01T17:11:37.968Z,29.07
2018-12-01T17:15:40.404Z,28.90
2018-12-01T17:19:42.927Z,25.70
2018-12-01T17:23:45.347Z,27.90
2018-12-01T17:27:48.566Z,27.87
2018-12-01T17:31:50.928Z,28.30
2018-12-01T17:35:53.374Z,27.80
2018-12-01T17:39:55.829Z,27.83
2018-12-01T17:44:02.044Z,23.00
2018-12-01T17:48:04.761Z,34.30
2018-12-01T17:52:07.148Z,25.57
2018-12-01T17:56:09.566Z,23.87
2018-12-01T18:00:18.371Z,25.43
2018-12-01T18:04:20.775Z,21.77
2018-12-01T18:08:23.403Z,26.23
2018-12-01T18:12:25.976Z,19.80
2018-12-01T18:16:28.355Z,21.27
2018-12-01T18:20:30.796Z,10.00
2018-12-01T18:24:33.275Z,9.80
2018-12-01T18:28:38.605Z,8.60
2018-12-01T18:32:41.096Z,8.63
2018-12-01T18:36:43.494Z,9.37
2018-12-01T18:40:46.148Z,9.10
2018-12-01T18:44:48.631Z,11.63
2018-12-01T18:48:51.186Z,10.47
2018-12-01T18:52:55.024Z,12.03
2018-12-01T18:56:57.538Z,12.47
2018-12-01T19:01:00.258Z,14.13
2018-12-01T19:05:02.684Z,15.85
2018-12-01T19:09:07.080Z,15.80
2018-12-01T19:13:09.479Z,19.60
2018-12-01T19:17:11.878Z,15.23
2018-12-01T19:21:15.277Z,18.00
2018-12-01T19:25:18.990Z,21.30
2018-12-01T19:29:21.381Z,18.20
2018-12-01T19:33:24.130Z,19.13
2018-12-01T19:37:27.262Z,18.63
2018-12-01T19:41:29.043Z,22.70
2018-12-01T19:45:32.030Z,25.00
2018-12-01T19:49:34.443Z,26.37
2018-12-01T19:53:36.897Z,30.10
2018-12-01T19:57:39.754Z,29.97
2018-12-01T20:01:42.127Z,27.77
2018-12-01T20:05:45.098Z,29.33
2018-12-01T20:09:47.942Z,32.97
2018-12-01T20:13:50.841Z,28.83
2018-12-01T20:17:54.358Z,28.80
2018-12-01T20:21:56.737Z,28.38
2018-12-01T20:25:59.093Z,26.10
2018-12-01T20:30:01.525Z,26.03
2018-12-01T20:34:03.943Z,29.43
2018-12-01T20:38:14.009Z,29.30
2018-12-01T20:42:16.426Z,27.63
2018-12-01T20:46:18.827Z,26.13
2018-12-01T20:50:22.450Z,28.30
2018-12-01T20:54:33.142Z,29.87
2018-12-01T20:58:35.625Z,31.47
2018-12-01T21:02:38.218Z,28.60
2018-12-01T21:06:40.578Z,32.13
2018-12-01T21:10:47.932Z,28.37
2018-12-01T21:14:50.362Z,27.33
2018-12-01T21:18:52.728Z,28.10
2018-12-01T21:22:55.141Z,29.13
2018-12-01T21:26:57.888Z,25.33
2018-12-01T21:31:01.719Z,24.77
2018-12-01T21:35:04.519Z,27.67
2018-12-01T21:39:08.186Z,22.67
2018-12-01T21:43:11.218Z,27.53
2018-12-01T21:47:13.619Z,22.80
2018-12-01T21:51:15.978Z,22.23
2018-12-01T21:55:18.523Z,22.80
2018-12-01T21:59:20.881Z,27.20
2018-12-01T22:03:23.356Z,25.23
2018-12-01T22:07:25.893Z,24.10
2018-12-01T22:11:28.343Z,22.17
2018-12-01T22:15:30.752Z,24.77
2018-12-01T22:19:33.128Z,29.43
2018-12-01T22:23:35.547Z,25.73
2018-12-01T22:27:38.168Z,23.53
2018-12-01T22:31:40.518Z,21.60
2018-12-01T22:35:44.581Z,22.67
2018-12-01T22:39:46.926Z,18.73
2018-12-01T22:43:49.401Z,20.10
2018-12-01T22:47:51.721Z,20.40
2018-12-01T22:51:54.128Z,17.90
2018-12-01T22:55:56.516Z,19.40
2018-12-01T22:59:59.050Z,21.33
2018-12-01T23:04:01.437Z,16.57
2018-12-01T23:08:04.407Z,20.57
2018-12-01T23:12:06.758Z,15.70
2018-12-01T23:16:09.169Z,17.20
2018-12-01T23:20:17.718Z,17.50
2018-12-01T23:24:20.141Z,15.23
2018-12-01T23:28:22.525Z,18.57
2018-12-01T23:32:25.180Z,14.13
2018-12-01T23:36:27.528Z,17.97
2018-12-01T23:40:29.904Z,13.73
2018-12-01T23:44:32.346Z,12.37
2018-12-01T23:48:35.730Z,14.20
2018-12-01T23:52:38.244Z,15.17
2018-12-01T23:56:40.655Z,11.87
